createdAt,value
2017-11-24T00:00:07.855Z,1004.0
2017-11-24T00:10:22.679Z,1003.9
2017-11-24T00:20:40.871Z,1003.8
2017-11-24T00:31:09.445Z,1003.8
2017-11-24T00:41:22.741Z,1003.8
2017-11-24T00:51:37.912Z,1003.9
2017-11-24T01:02:30.007Z,1004.0
2017-11-24T01:13:16.334Z,1003.7
2017-11-24T01:24:05.016Z,1003.7
2017-11-24T01:34:19.204Z,1003.4
2017-11-24T01:44:43.897Z,1003.6
2017-11-24T01:55:29.424Z,1003.3
2017-11-24T02:06:16.938Z,1003.3
2017-11-24T02:17:07.092Z,1002.9
2017-11-24T02:27:54.124Z,1003.0
2017-11-24T02:38:09.479Z,1002.7
2017-11-24T02:48:55.993Z,1002.7
2017-11-24T02:59:10.558Z,1002.8
2017-11-24T03:09:56.080Z,1002.8
2017-11-24T03:20:13.325Z,1002.9
2017-11-24T03:30:28.962Z,1002.9
2017-11-24T03:40:45.943Z,1003.1
2017-11-24T03:51:00.465Z,1003.0
2017-11-24T04:01:14.729Z,1002.6
2017-11-24T04:11:39.994Z,1002.6
2017-11-24T04:22:00.681Z,1001.9
2017-11-24T04:32:49.037Z,1002.0
2017-11-24T04:43:07.053Z,1001.5
2017-11-24T04:53:22.956Z,1001.6
2017-11-24T05:03:41.734Z,1001.6
2017-11-24T05:13:56.221Z,1001.9
2017-11-24T05:24:45.757Z,1002.4
2017-11-24T05:35:05.397Z,1002.6
2017-11-24T05:45:24.205Z,1002.6
2017-11-24T05:55:38.647Z,1002.3
2017-11-24T06:05:57.947Z,1002.1
2017-11-24T06:16:45.198Z,1002.2
2017-11-24T06:27:00.471Z,1001.8
2017-11-24T06:37:45.323Z,1001.5
2017-11-24T06:48:02.034Z,1002.0
2017-11-24T06:58:22.050Z,1002.4
2017-11-24T07:08:36.514Z,1002.6
2017-11-24T07:18:48.477Z,1002.7
2017-11-24T07:29:19.227Z,1002.6
2017-11-24T07:39:34.132Z,1002.8
2017-11-24T07:50:10.568Z,1003.1
2017-11-24T08:00:27.213Z,1003.3
2017-11-24T08:11:25.836Z,1003.3
2017-11-24T08:21:50.532Z,1003.0
2017-11-24T08:32:38.934Z,1003.2
2017-11-24T08:43:07.441Z,1003.3
2017-11-24T08:53:25.430Z,1003.7
2017-11-24T09:03:44.961Z,1004.0
2017-11-24T09:14:31.033Z,1004.2
2017-11-24T09:24:44.730Z,1004.3
2017-11-24T09:36:07.669Z,1004.4
2017-11-24T09:46:27.486Z,1004.4
2017-11-24T09:56:56.225Z,1004.5
2017-11-24T10:07:11.759Z,1004.7
2017-11-24T10:17:28.093Z,1004.9
2017-11-24T10:27:41.469Z,1004.8
2017-11-24T10:37:52.618Z,1004.9
2017-11-24T10:48:06.799Z,1004.9
2017-11-24T10:58:30.614Z,1005.2
2017-11-24T11:08:47.424Z,1005.2
2017-11-24T11:19:11.771Z,1005.2
2017-11-24T11:29:24.808Z,1005.3
2017-11-24T11:40:08.395Z,1005.4
2017-11-24T11:50:22.460Z,1005.5
2017-11-24T12:01:45.950Z,1005.7
2017-11-24T12:12:04.536Z,1005.8
2017-11-24T12:22:18.932Z,1005.5
2017-11-24T12:32:30.661Z,1005.4
2017-11-24T12:42:47.117Z,1005.4
2017-11-24T12:53:00.987Z,1005.3
2017-11-24T13:03:46.953Z,1005.3
2017-11-24T13:14:34.339Z,1005.4
2017-11-24T13:25:19.429Z,1005.6
2017-11-24T13:35:31.397Z,1005.7
2017-11-24T13:45:43.192Z,1005.8
2017-11-24T13:55:57.492Z,1005.9
2017-11-24T14:06:14.452Z,1006.0
2017-11-24T14:16:30.552Z,1007.0
2017-11-24T14:26:45.765Z,1006.8
2017-11-24T14:37:00.848Z,1006.4
2017-11-24T14:47:46.122Z,1006.6
2017-11-24T14:57:57.032Z,1006.9
2017-11-24T15:08:46.021Z,1006.8
2017-11-24T15:18:59.514Z,1006.8
2017-11-24T15:29:25.914Z,1006.9
2017-11-24T15:39:47.526Z,1007.0
2017-11-24T15:50:08.213Z,1007.1
2017-11-24T16:00:28.266Z,1007.1
2017-11-24T16:10:41.981Z,1007.1
2017-11-24T16:20:55.291Z,1007.3
2017-11-24T16:31:06.580Z,1007.4
2017-11-24T16:41:54.533Z,1007.3
2017-11-24T16:52:39.489Z,1007.2
2017-11-24T17:03:59.636Z,1007.2
2017-11-24T17:14:13.333Z,1007.3
2017-11-24T17:24:30.297Z,1007.2
2017-11-24T17:34:43.928Z,1007.2
2017-11-24T17:44:57.231Z,1007.3
2017-11-24T17:55:53.549Z,1007.5
2017-11-24T18:06:38.129Z,1007.4
2017-11-24T18:16:50.934Z,1007.6
2017-11-24T18:27:05.612Z,1007.5
2017-11-24T18:37:50.500Z,1007.6
2017-11-24T18:48:38.248Z,1007.8
2017-11-24T18:59:23.559Z,1007.8
2017-11-24T19:10:26.967Z,1007.8
2017-11-24T19:21:30.561Z,1007.9
2017-11-24T19:31:51.684Z,1008.1
2017-11-24T19:42:11.439Z,1008.1
2017-11-24T19:53:03.126Z,1008.0
2017-11-24T20:03:24.631Z,1008.0
2017-11-24T20:14:16.053Z,1008.1
2017-11-24T20:25:04.176Z,1008.0
2017-11-24T20:35:23.339Z,1007.9
2017-11-24T20:46:18.021Z,1007.7
2017-11-24T20:57:04.364Z,1007.9
2017-11-24T21:07:22.695Z,1008.0
2017-11-24T21:17:38.162Z,1007.9
2017-11-24T21:28:03.860Z,1007.7
2017-11-24T21:38:21.268Z,1007.7
2017-11-24T21:48:40.658Z,1007.5
2017-11-24T21:58:57.002Z,1007.5
2017-11-24T22:09:12.380Z,1007.5
2017-11-24T22:20:09.731Z,1007.6
2017-11-24T22:30:24.552Z,1007.7
2017-11-24T22:41:21.392Z,1007.7
2017-11-24T22:51:39.699Z,1007.7
2017-11-24T23:01:53.532Z,1007.3
2017-11-24T23:12:06.117Z,1007.4
2017-11-24T23:22:55.732Z,1007.3
2017-11-24T23:33:11.185Z,1007.0
2017-11-24T23:43:38.686Z,1006.9
2017-11-24T23:53:53.591Z,1006.8
